sensor_id;sensor_type;location;lat;lon;timestamp;pressure;altitude;pressure_sealevel;temperature;humidity
71109;BME280;59614;51.012;-1.648;2024-03-22T00:01:53;101356.00;;;10.55;100.00
71109;BME280;59614;51.012;-1.648;2024-03-22T00:04:19;101355.09;;;10.59;100.00
71109;BME280;59614;51.012;-1.648;2024-03-22T00:06:46;101354.25;;;10.59;100.00
71109;BME280;59614;51.012;-1.648;2024-03-22T00:09:11;101345.41;;;10.71;100.00
71109;BME280;59614;51.012;-1.648;2024-03-22T00:11:39;101340.13;;;10.77;100.00
71109;BME280;59614;51.012;-1.648;2024-03-22T00:14:05;101348.94;;;10.63;100.00
71109;BME280;59614;51.012;-1.648;2024-03-22T00:16:30;101345.44;;;10.57;100.00
71109;BME280;59614;51.012;-1.648;2024-03-22T00:18:56;101330.47;;;10.60;100.00
71109;BME280;59614;51.012;-1.648;2024-03-22T00:21:22;101331.38;;;10.50;100.00
71109;BME280;59614;51.012;-1.648;2024-03-22T00:23:47;101319.97;;;10.40;100.00
71109;BME280;59614;51.012;-1.648;2024-03-22T00:26:12;101316.44;;;10.38;100.00
71109;BME280;59614;51.012;-1.648;2024-03-22T00:28:38;101309.41;;;10.40;100.00
71109;BME280;59614;51.012;-1.648;2024-03-22T00:31:03;101312.91;;;10.31;100.00
71109;BME280;59614;51.012;-1.648;2024-03-22T00:33:29;101311.13;;;10.36;100.00
71109;BME280;59614;51.012;-1.648;2024-03-22T00:35:54;101303.19;;;10.36;100.00
71109;BME280;59614;51.012;-1.648;2024-03-22T00:38:19;101301.47;;;10.32;100.00
71109;BME280;59614;51.012;-1.648;2024-03-22T00:40:44;101306.72;;;10.26;100.00
71109;BME280;59614;51.012;-1.648;2024-03-22T00:43:10;101308.50;;;10.21;100.00
71109;BME280;59614;51.012;-1.648;2024-03-22T00:45:35;101293.56;;;10.17;100.00
71109;BME280;59614;51.012;-1.648;2024-03-22T00:48:00;101301.47;;;10.14;100.00
71109;BME280;59614;51.012;-1.648;2024-03-22T00:50:26;101297.09;;;10.10;100.00
71109;BME280;59614;51.012;-1.648;2024-03-22T00:52:51;101281.25;;;9.94;100.00
71109;BME280;59614;51.012;-1.648;2024-03-22T00:55:18;101286.53;;;10.13;100.00
71109;BME280;59614;51.012;-1.648;2024-03-22T00:57:43;101284.78;;;10.01;100.00
71109;BME280;59614;51.012;-1.648;2024-03-22T01:00:09;101283.91;;;10.00;100.00
71109;BME280;59614;51.012;-1.648;2024-03-22T01:02:35;101277.72;;;9.92;100.00
71109;BME280;59614;51.012;-1.648;2024-03-22T01:05:00;101271.59;;;9.84;100.00
71109;BME280;59614;51.012;-1.648;2024-03-22T01:07:25;101265.44;;;9.93;100.00
71109;BME280;59614;51.012;-1.648;2024-03-22T01:09:51;101270.69;;;9.91;100.00
71109;BME280;59614;51.012;-1.648;2024-03-22T01:12:16;101271.59;;;9.92;100.00
71109;BME280;59614;51.012;-1.648;2024-03-22T01:14:41;101270.72;;;9.97;100.00
71109;BME280;59614;51.012;-1.648;2024-03-22T01:17:07;101265.44;;;9.89;100.00
71109;BME280;59614;51.012;-1.648;2024-03-22T01:19:33;101267.19;;;9.95;100.00
71109;BME280;59614;51.012;-1.648;2024-03-22T01:21:58;101266.31;;;10.01;100.00
71109;BME280;59614;51.012;-1.648;2024-03-22T01:24:24;101253.16;;;9.95;100.00
71109;BME280;59614;51.012;-1.648;2024-03-22T01:26:49;101255.78;;;9.87;100.00
71109;BME280;59614;51.012;-1.648;2024-03-22T01:29:14;101247.88;;;9.90;100.00
71109;BME280;59614;51.012;-1.648;2024-03-22T01:31:39;101239.06;;;9.74;100.00
71109;BME280;59614;51.012;-1.648;2024-03-22T01:34:05;101234.69;;;9.78;100.00
71109;BME280;59614;51.012;-1.648;2024-03-22T01:36:30;101229.41;;;9.84;100.00
71109;BME280;59614;51.012;-1.648;2024-03-22T01:38:56;101221.50;;;9.74;100.00
71109;BME280;59614;51.012;-1.648;2024-03-22T01:41:21;101228.53;;;9.55;100.00
71109;BME280;59614;51.012;-1.648;2024-03-22T01:43:46;101221.50;;;9.61;100.00
71109;BME280;59614;51.012;-1.648;2024-03-22T01:46:12;101215.34;;;9.69;100.00
71109;BME280;59614;51.012;-1.648;2024-03-22T01:48:37;101210.09;;;9.71;100.00
71109;BME280;59614;51.012;-1.648;2024-03-22T01:51:04;101199.53;;;9.69;100.00
71109;BME280;59614;51.012;-1.648;2024-03-22T01:53:30;101201.28;;;9.70;100.00
71109;BME280;59614;51.012;-1.648;2024-03-22T01:55:56;101197.75;;;9.68;100.00
71109;BME280;59614;51.012;-1.648;2024-03-22T01:58:21;101196.03;;;9.67;100.00
71109;BME280;59614;51.012;-1.648;2024-03-22T02:00:47;101182.84;;;9.69;100.00
71109;BME280;59614;51.012;-1.648;2024-03-22T02:03:12;101179.31;;;9.64;100.00
71109;BME280;59614;51.012;-1.648;2024-03-22T02:05:37;101186.34;;;9.57;100.00
71109;BME280;59614;51.012;-1.648;2024-03-22T02:08:03;101180.19;;;9.53;100.00
71109;BME280;59614;51.012;-1.648;2024-03-22T02:10:28;101181.97;;;9.62;100.00
71109;BME280;59614;51.012;-1.648;2024-03-22T02:12:54;101177.56;;;9.63;100.00
71109;BME280;59614;51.012;-1.648;2024-03-22T02:15:19;101181.09;;;9.63;100.00
71109;BME280;59614;51.012;-1.648;2024-03-22T02:17:45;101185.47;;;9.70;100.00
71109;BME280;59614;51.012;-1.648;2024-03-22T02:20:10;101172.28;;;9.73;100.00
71109;BME280;59614;51.012;-1.648;2024-03-22T02:22:37;101168.78;;;9.74;100.00
71109;BME280;59614;51.012;-1.648;2024-03-22T02:25:03;101171.41;;;9.74;100.00
71109;BME280;59614;51.012;-1.648;2024-03-22T02:27:28;101162.63;;;9.72;100.00
71109;BME280;59614;51.012;-1.648;2024-03-22T02:29:54;101160.84;;;9.81;100.00
71109;BME280;59614;51.012;-1.648;2024-03-22T02:32:19;101156.47;;;9.78;100.00
71109;BME280;59614;51.012;-1.648;2024-03-22T02:34:45;101159.97;;;9.74;100.00
71109;BME280;59614;51.012;-1.648;2024-03-22T02:37:10;101157.34;;;9.80;100.00
71109;BME280;59614;51.012;-1.648;2024-03-22T02:39:35;101152.94;;;9.79;100.00
71109;BME280;59614;51.012;-1.648;2024-03-22T02:42:01;101166.13;;;9.81;100.00
71109;BME280;59614;51.012;-1.648;2024-03-22T02:44:26;101170.53;;;9.74;100.00
71109;BME280;59614;51.012;-1.648;2024-03-22T02:46:51;101167.03;;;9.73;100.00
71109;BME280;59614;51.012;-1.648;2024-03-22T02:49:16;101165.25;;;9.89;100.00
71109;BME280;59614;51.012;-1.648;2024-03-22T02:51:42;101164.41;;;9.72;100.00
71109;BME280;59614;51.012;-1.648;2024-03-22T02:54:07;101162.59;;;9.82;100.00
71109;BME280;59614;51.012;-1.648;2024-03-22T02:56:32;101158.22;;;9.95;100.00
71109;BME280;59614;51.012;-1.648;2024-03-22T02:58:58;101172.25;;;9.98;100.00
71109;BME280;59614;51.012;-1.648;2024-03-22T03:01:23;101161.72;;;9.92;100.00
71109;BME280;59614;51.012;-1.648;2024-03-22T03:03:48;101163.50;;;9.87;100.00
71109;BME280;59614;51.012;-1.648;2024-03-22T03:06:14;101152.97;;;9.67;100.00
71109;BME280;59614;51.012;-1.648;2024-03-22T03:08:40;101152.97;;;9.71;100.00
71109;BME280;59614;51.012;-1.648;2024-03-22T03:11:05;101146.81;;;9.65;100.00
71109;BME280;59614;51.012;-1.648;2024-03-22T03:13:30;101152.06;;;9.69;100.00
71109;BME280;59614;51.012;-1.648;2024-03-22T03:15:57;101147.69;;;9.71;100.00
71109;BME280;59614;51.012;-1.648;2024-03-22T03:18:22;101143.28;;;9.70;100.00
71109;BME280;59614;51.012;-1.648;2024-03-22T03:20:47;101145.06;;;9.64;100.00
71109;BME280;59614;51.012;-1.648;2024-03-22T03:23:13;101140.66;;;9.78;100.00
71109;BME280;59614;51.012;-1.648;2024-03-22T03:25:38;101141.56;;;9.51;100.00
71109;BME280;59614;51.012;-1.648;2024-03-22T03:28:04;101131.00;;;9.66;100.00
71109;BME280;59614;51.012;-1.648;2024-03-22T03:30:29;101128.38;;;9.58;100.00
71109;BME280;59614;51.012;-1.648;2024-03-22T03:32:54;101125.75;;;9.66;100.00
71109;BME280;59614;51.012;-1.648;2024-03-22T03:35:20;101132.72;;;9.80;100.00
71109;BME280;59614;51.012;-1.648;2024-03-22T03:37:45;101125.69;;;9.93;100.00
71109;BME280;59614;51.012;-1.648;2024-03-22T03:40:10;101123.91;;;9.93;100.00
71109;BME280;59614;51.012;-1.648;2024-03-22T03:42:36;101116.03;;;9.79;100.00
71109;BME280;59614;51.012;-1.648;2024-03-22T03:45:01;101114.34;;;9.50;100.00
71109;BME280;59614;51.012;-1.648;2024-03-22T03:47:27;101106.44;;;9.47;100.00
71109;BME280;59614;51.012;-1.648;2024-03-22T03:49:52;101083.59;;;9.43;100.00
71109;BME280;59614;51.012;-1.648;2024-03-22T03:52:17;101099.34;;;9.69;100.00
71109;BME280;59614;51.012;-1.648;2024-03-22T03:54:43;101095.84;;;9.77;100.00
71109;BME280;59614;51.012;-1.648;2024-03-22T03:57:08;101095.88;;;9.52;100.00
71109;BME280;59614;51.012;-1.648;2024-03-22T03:59:34;101077.41;;;9.67;100.00
71109;BME280;59614;51.012;-1.648;2024-03-22T04:01:59;101078.25;;;9.88;100.00
71109;BME280;59614;51.012;-1.648;2024-03-22T04:04:24;101079.94;;;10.04;100.00
71109;BME280;59614;51.012;-1.648;2024-03-22T04:06:49;101086.06;;;10.13;100.00
71109;BME280;59614;51.012;-1.648;2024-03-22T04:09:15;101076.41;;;10.02;100.00
71109;BME280;59614;51.012;-1.648;2024-03-22T04:11:40;101069.41;;;10.01;100.00
71109;BME280;59614;51.012;-1.648;2024-03-22T04:14:05;101065.00;;;10.05;100.00
71109;BME280;59614;51.012;-1.648;2024-03-22T04:16:31;101070.28;;;10.00;100.00
71109;BME280;59614;51.012;-1.648;2024-03-22T04:18:57;101081.66;;;10.10;100.00
71109;BME280;59614;51.012;-1.648;2024-03-22T04:21:22;101079.06;;;10.01;100.00
71109;BME280;59614;51.012;-1.648;2024-03-22T04:23:48;101069.38;;;10.11;100.00
71109;BME280;59614;51.012;-1.648;2024-03-22T04:26:14;101079.09;;;9.99;100.00
71109;BME280;59614;51.012;-1.648;2024-03-22T04:28:40;101075.53;;;10.03;100.00
71109;BME280;59614;51.012;-1.648;2024-03-22T04:31:06;101076.41;;;10.09;100.00
71109;BME280;59614;51.012;-1.648;2024-03-22T04:33:36;101086.91;;;10.21;100.00
71109;BME280;59614;51.012;-1.648;2024-03-22T04:36:02;101081.66;;;10.10;100.00
71109;BME280;59614;51.012;-1.648;2024-03-22T04:38:29;101093.88;;;10.38;100.00
71109;BME280;59614;51.012;-1.648;2024-03-22T04:40:55;101089.47;;;10.32;100.00
71109;BME280;59614;51.012;-1.648;2024-03-22T04:43:22;101091.31;;;10.17;100.00
71109;BME280;59614;51.012;-1.648;2024-03-22T04:45:48;101087.81;;;10.18;100.00
71109;BME280;59614;51.012;-1.648;2024-03-22T04:48:21;101083.41;;;10.16;100.00
71109;BME280;59614;51.012;-1.648;2024-03-22T04:50:51;101086.06;;;10.14;100.00
71109;BME280;59614;51.012;-1.648;2024-03-22T04:53:17;101078.22;;;9.97;100.00
71109;BME280;59614;51.012;-1.648;2024-03-22T04:55:43;101078.13;;;10.16;100.00
71109;BME280;59614;51.012;-1.648;2024-03-22T04:58:17;101078.06;;;10.28;100.00
71109;BME280;59614;51.012;-1.648;2024-03-22T05:00:43;101075.53;;;10.10;100.00
71109;BME280;59614;51.012;-1.648;2024-03-22T05:03:08;101065.81;;;10.24;100.00
71109;BME280;59614;51.012;-1.648;2024-03-22T05:05:34;101071.09;;;10.18;100.00
71109;BME280;59614;51.012;-1.648;2024-03-22T05:08:00;101066.72;;;10.18;100.00
71109;BME280;59614;51.012;-1.648;2024-03-22T05:10:26;101071.91;;;10.29;100.00
71109;BME280;59614;51.012;-1.648;2024-03-22T05:12:51;101064.06;;;10.20;100.00
71109;BME280;59614;51.012;-1.648;2024-03-22T05:15:16;101060.44;;;10.36;100.00
71109;BME280;59614;51.012;-1.648;2024-03-22T05:17:42;101064.84;;;10.44;100.00
71109;BME280;59614;51.012;-1.648;2024-03-22T05:20:08;101057.81;;;10.40;100.00
71109;BME280;59614;51.012;-1.648;2024-03-22T05:22:37;101058.63;;;10.51;100.00
71109;BME280;59614;51.012;-1.648;2024-03-22T05:25:02;101050.75;;;10.43;100.00
71109;BME280;59614;51.012;-1.648;2024-03-22T05:27:28;101054.31;;;10.33;100.00
71109;BME280;59614;51.012;-1.648;2024-03-22T05:29:53;101054.31;;;10.38;100.00
71109;BME280;59614;51.012;-1.648;2024-03-22T05:32:19;101055.19;;;10.41;100.00
71109;BME280;59614;51.012;-1.648;2024-03-22T05:34:44;101049.88;;;10.36;100.00
71109;BME280;59614;51.012;-1.648;2024-03-22T05:37:09;101055.25;;;10.21;100.00
71109;BME280;59614;51.012;-1.648;2024-03-22T05:39:36;101043.78;;;10.28;100.00
71109;BME280;59614;51.012;-1.648;2024-03-22T05:42:01;101049.91;;;10.33;100.00
71109;BME280;59614;51.012;-1.648;2024-03-22T05:44:26;101049.00;;;10.44;100.00
71109;BME280;59614;51.012;-1.648;2024-03-22T05:46:52;101040.22;;;10.45;100.00
71109;BME280;59614;51.012;-1.648;2024-03-22T05:49:17;101046.50;;;10.10;100.00
71109;BME280;59614;51.012;-1.648;2024-03-22T05:51:43;101049.91;;;10.32;100.00
71109;BME280;59614;51.012;-1.648;2024-03-22T05:54:08;101041.09;;;10.41;100.00
71109;BME280;59614;51.012;-1.648;2024-03-22T05:56:34;101036.69;;;10.43;100.00
71109;BME280;59614;51.012;-1.648;2024-03-22T05:58:59;101039.38;;;10.27;100.00
71109;BME280;59614;51.012;-1.648;2024-03-22T06:01:25;101027.00;;;10.45;100.00
71109;BME280;59614;51.012;-1.648;2024-03-22T06:03:50;101034.97;;;10.29;100.00
71109;BME280;59614;51.012;-1.648;2024-03-22T06:06:15;101030.53;;;10.44;100.00
71109;BME280;59614;51.012;-1.648;2024-03-22T06:08:41;101034.97;;;10.40;100.00
71109;BME280;59614;51.012;-1.648;2024-03-22T06:11:09;101031.44;;;10.38;100.00
71109;BME280;59614;51.012;-1.648;2024-03-22T06:13:34;101023.56;;;10.27;100.00
71109;BME280;59614;51.012;-1.648;2024-03-22T06:16:01;101023.50;;;10.40;100.00
71109;BME280;59614;51.012;-1.648;2024-03-22T06:18:27;101025.28;;;10.38;100.00
71109;BME280;59614;51.012;-1.648;2024-03-22T06:20:52;101027.03;;;10.39;100.00
71109;BME280;59614;51.012;-1.648;2024-03-22T06:23:20;101022.66;;;10.31;100.00
71109;BME280;59614;51.012;-1.648;2024-03-22T06:25:52;101025.34;;;10.22;100.00
71109;BME280;59614;51.012;-1.648;2024-03-22T06:28:18;101011.28;;;10.20;100.00
71109;BME280;59614;51.012;-1.648;2024-03-22T06:30:43;101012.16;;;10.20;100.00
71109;BME280;59614;51.012;-1.648;2024-03-22T06:33:08;101013.84;;;10.31;100.00
71109;BME280;59614;51.012;-1.648;2024-03-22T06:35:34;101015.69;;;10.24;100.00
71109;BME280;59614;51.012;-1.648;2024-03-22T06:37:59;101015.59;;;10.35;100.00
71109;BME280;59614;51.012;-1.648;2024-03-22T06:40:27;101014.81;;;10.22;100.00
71109;BME280;59614;51.012;-1.648;2024-03-22T06:42:53;101007.69;;;10.33;100.00
71109;BME280;59614;51.012;-1.648;2024-03-22T06:45:19;101008.53;;;10.43;100.00
71109;BME280;59614;51.012;-1.648;2024-03-22T06:47:44;101014.72;;;10.38;100.00
71109;BME280;59614;51.012;-1.648;2024-03-22T06:50:10;101003.31;;;10.26;100.00
71109;BME280;59614;51.012;-1.648;2024-03-22T06:52:36;101011.28;;;10.23;100.00
71109;BME280;59614;51.012;-1.648;2024-03-22T06:55:01;100999.75;;;10.36;100.00
71109;BME280;59614;51.012;-1.648;2024-03-22T06:57:28;100998.88;;;10.44;100.00
71109;BME280;59614;51.012;-1.648;2024-03-22T06:59:53;100994.53;;;10.27;100.00
71109;BME280;59614;51.012;-1.648;2024-03-22T07:02:18;100996.25;;;10.38;100.00
71109;BME280;59614;51.012;-1.648;2024-03-22T07:04:44;100997.97;;;10.46;100.00
71109;BME280;59614;51.012;-1.648;2024-03-22T07:07:09;100995.31;;;10.49;100.00
71109;BME280;59614;51.012;-1.648;2024-03-22T07:09:34;100998.75;;;10.61;100.00
71109;BME280;59614;51.012;-1.648;2024-03-22T07:12:01;100994.34;;;10.60;100.00
71109;BME280;59614;51.012;-1.648;2024-03-22T07:14:26;101002.19;;;10.71;100.00
71109;BME280;59614;51.012;-1.648;2024-03-22T07:16:52;101005.59;;;10.85;100.00
71109;BME280;59614;51.012;-1.648;2024-03-22T07:19:19;101002.97;;;10.82;100.00
71109;BME280;59614;51.012;-1.648;2024-03-22T07:21:46;101004.72;;;10.85;100.00
71109;BME280;59614;51.012;-1.648;2024-03-22T07:24:11;101002.94;;;10.87;100.00
71109;BME280;59614;51.012;-1.648;2024-03-22T07:26:37;101002.94;;;10.87;100.00
71109;BME280;59614;51.012;-1.648;2024-03-22T07:29:02;101004.88;;;10.68;100.00
71109;BME280;59614;51.012;-1.648;2024-03-22T07:31:27;101005.66;;;10.79;100.00
71109;BME280;59614;51.012;-1.648;2024-03-22T07:33:53;101008.28;;;10.77;100.00
71109;BME280;59614;51.012;-1.648;2024-03-22T07:36:18;101009.19;;;10.75;100.00
71109;BME280;59614;51.012;-1.648;2024-03-22T07:38:44;101012.63;;;10.86;100.00
71109;BME280;59614;51.012;-1.648;2024-03-22T07:41:09;101018.81;;;10.84;100.00
71109;BME280;59614;51.012;-1.648;2024-03-22T07:43:35;101016.84;;;11.06;100.00
71109;BME280;59614;51.012;-1.648;2024-03-22T07:46:00;101015.03;;;11.12;100.00
71109;BME280;59614;51.012;-1.648;2024-03-22T07:48:25;101023.06;;;11.03;100.00
71109;BME280;59614;51.012;-1.648;2024-03-22T07:51:00;101020.41;;;11.03;100.00
71109;BME280;59614;51.012;-1.648;2024-03-22T07:53:26;101019.50;;;11.06;100.00
71109;BME280;59614;51.012;-1.648;2024-03-22T07:55:52;101023.00;;;11.08;100.00
71109;BME280;59614;51.012;-1.648;2024-03-22T07:58:17;101022.91;;;11.17;100.00
71109;BME280;59614;51.012;-1.648;2024-03-22T08:00:43;101020.34;;;11.14;100.00
71109;BME280;59614;51.012;-1.648;2024-03-22T08:03:14;101034.28;;;11.27;100.00
71109;BME280;59614;51.012;-1.648;2024-03-22T08:05:39;101026.31;;;11.32;100.00
71109;BME280;59614;51.012;-1.648;2024-03-22T08:08:05;101024.44;;;11.43;100.00
71109;BME280;59614;51.012;-1.648;2024-03-22T08:10:30;101026.25;;;11.38;100.00
71109;BME280;59614;51.012;-1.648;2024-03-22T08:12:56;101033.34;;;11.33;100.00
71109;BME280;59614;51.012;-1.648;2024-03-22T08:15:21;101029.66;;;11.49;100.00
71109;BME280;59614;51.012;-1.648;2024-03-22T08:17:46;101033.25;;;11.42;100.00
71109;BME280;59614;51.012;-1.648;2024-03-22T08:20:12;101026.25;;;11.38;100.00
71109;BME280;59614;51.012;-1.648;2024-03-22T08:22:37;101035.84;;;11.47;100.00
71109;BME280;59614;51.012;-1.648;2024-03-22T08:25:03;101030.53;;;11.50;100.00
71109;BME280;59614;51.012;-1.648;2024-03-22T08:27:29;101033.97;;;11.58;100.00
71109;BME280;59614;51.012;-1.648;2024-03-22T08:29:54;101028.44;;;11.80;100.00
71109;BME280;59614;51.012;-1.648;2024-03-22T08:32:20;101017.72;;;11.92;100.00
71109;BME280;59614;51.012;-1.648;2024-03-22T08:34:46;101011.56;;;11.90;100.00
71109;BME280;59614;51.012;-1.648;2024-03-22T08:37:11;101015.97;;;11.91;100.00
71109;BME280;59614;51.012;-1.648;2024-03-22T08:39:36;100999.03;;;12.06;100.00
71109;BME280;59614;51.012;-1.648;2024-03-22T08:42:02;100995.19;;;12.29;100.00
71109;BME280;59614;51.012;-1.648;2024-03-22T08:44:30;100997.66;;;12.41;100.00
71109;BME280;59614;51.012;-1.648;2024-03-22T08:46:55;100988.88;;;12.39;100.00
71109;BME280;59614;51.012;-1.648;2024-03-22T08:49:20;100988.56;;;12.59;100.00
71109;BME280;59614;51.012;-1.648;2024-03-22T08:51:46;100986.00;;;12.55;100.00
71109;BME280;59614;51.012;-1.648;2024-03-22T08:54:11;100998.53;;;12.43;100.00
71109;BME280;59614;51.012;-1.648;2024-03-22T08:56:36;101000.13;;;12.54;100.00
71109;BME280;59614;51.012;-1.648;2024-03-22T08:59:02;100998.31;;;12.59;100.00
71109;BME280;59614;51.012;-1.648;2024-03-22T09:01:27;100999.63;;;12.86;100.00
71109;BME280;59614;51.012;-1.648;2024-03-22T09:03:52;100992.06;;;12.61;100.00
71109;BME280;59614;51.012;-1.648;2024-03-22T09:06:18;100987.28;;;12.83;100.00
71109;BME280;59614;51.012;-1.648;2024-03-22T09:08:43;100981.97;;;12.85;100.00
71109;BME280;59614;51.012;-1.648;2024-03-22T09:11:08;100982.91;;;12.82;100.00
71109;BME280;59614;51.012;-1.648;2024-03-22T09:13:34;100980.88;;;12.42;100.00
71109;BME280;59614;51.012;-1.648;2024-03-22T09:16:01;100976.34;;;12.52;100.00
71109;BME280;59614;51.012;-1.648;2024-03-22T09:18:27;100978.88;;;12.60;100.00
71109;BME280;59614;51.012;-1.648;2024-03-22T09:20:55;100982.41;;;12.59;100.00
71109;BME280;59614;51.012;-1.648;2024-03-22T09:23:21;100971.31;;;12.35;100.00
71109;BME280;59614;51.012;-1.648;2024-03-22T09:25:47;100974.88;;;12.32;100.00
71109;BME280;59614;51.012;-1.648;2024-03-22T09:28:14;100979.06;;;12.47;100.00
71109;BME280;59614;51.012;-1.648;2024-03-22T09:30:40;100980.03;;;12.42;100.00
71109;BME280;59614;51.012;-1.648;2024-03-22T09:33:06;100977.56;;;12.28;100.00
71109;BME280;59614;51.012;-1.648;2024-03-22T09:35:35;100990.91;;;12.22;100.00
71109;BME280;59614;51.012;-1.648;2024-03-22T09:38:00;100979.97;;;12.46;100.00
71109;BME280;59614;51.012;-1.648;2024-03-22T09:40:26;100972.66;;;12.62;100.00
71109;BME280;59614;51.012;-1.648;2024-03-22T09:42:53;100971.63;;;12.71;100.00
71109;BME280;59614;51.012;-1.648;2024-03-22T09:45:19;100975.41;;;13.06;100.00
71109;BME280;59614;51.012;-1.648;2024-03-22T09:47:45;100975.66;;;12.92;100.00
71109;BME280;59614;51.012;-1.648;2024-03-22T09:50:11;100985.41;;;12.92;100.00
71109;BME280;59614;51.012;-1.648;2024-03-22T09:52:38;100971.25;;;13.43;100.00
71109;BME280;59614;51.012;-1.648;2024-03-22T09:55:07;100968.19;;;13.63;100.00
71109;BME280;59614;51.012;-1.648;2024-03-22T09:57:35;100969.28;;;13.53;100.00
71109;BME280;59614;51.012;-1.648;2024-03-22T10:00:02;100971.56;;;13.71;100.00
71109;BME280;59614;51.012;-1.648;2024-03-22T10:02:28;100975.94;;;13.74;99.79
71109;BME280;59614;51.012;-1.648;2024-03-22T10:04:56;100969.38;;;13.50;100.00
71109;BME280;59614;51.012;-1.648;2024-03-22T10:07:22;100975.78;;;13.35;98.57
71109;BME280;59614;51.012;-1.648;2024-03-22T10:09:47;100972.06;;;13.47;97.29
71109;BME280;59614;51.012;-1.648;2024-03-22T10:12:13;100972.50;;;13.22;94.67
71109;BME280;59614;51.012;-1.648;2024-03-22T10:14:38;100964.91;;;13.94;93.72
71109;BME280;59614;51.012;-1.648;2024-03-22T10:17:05;100979.56;;;14.12;91.46
71109;BME280;59614;51.012;-1.648;2024-03-22T10:19:30;100972.78;;;13.99;90.33
71109;BME280;59614;51.012;-1.648;2024-03-22T10:22:03;100975.19;;;13.67;87.29
71109;BME280;59614;51.012;-1.648;2024-03-22T10:24:29;100975.00;;;13.77;90.22
71109;BME280;59614;51.012;-1.648;2024-03-22T10:26:55;100986.44;;;13.79;91.70
71109;BME280;59614;51.012;-1.648;2024-03-22T10:29:21;100988.34;;;13.25;91.91
71109;BME280;59614;51.012;-1.648;2024-03-22T10:31:47;100998.91;;;13.28;91.09
71109;BME280;59614;51.012;-1.648;2024-03-22T10:34:13;100991.00;;;12.73;92.01
71109;BME280;59614;51.012;-1.648;2024-03-22T10:36:39;100986.81;;;12.58;91.18
71109;BME280;59614;51.012;-1.648;2024-03-22T10:39:05;100983.81;;;12.81;90.41
71109;BME280;59614;51.012;-1.648;2024-03-22T10:41:31;100987.44;;;12.74;90.05
71109;BME280;59614;51.012;-1.648;2024-03-22T10:43:57;100984.00;;;12.69;90.11
71109;BME280;59614;51.012;-1.648;2024-03-22T10:46:29;100980.56;;;12.64;88.14
71109;BME280;59614;51.012;-1.648;2024-03-22T10:48:55;100985.19;;;13.03;87.25
71109;BME280;59614;51.012;-1.648;2024-03-22T10:51:21;100986.50;;;12.78;86.76
71109;BME280;59614;51.012;-1.648;2024-03-22T10:53:47;100981.81;;;12.40;84.36
71109;BME280;59614;51.012;-1.648;2024-03-22T10:56:16;100997.41;;;12.58;83.24
71109;BME280;59614;51.012;-1.648;2024-03-22T10:58:42;100994.66;;;12.66;81.22
71109;BME280;59614;51.012;-1.648;2024-03-22T11:01:21;100992.84;;;12.68;80.16
71109;BME280;59614;51.012;-1.648;2024-03-22T11:03:47;100983.50;;;12.45;78.19
71109;BME280;59614;51.012;-1.648;2024-03-22T11:06:13;100989.63;;;12.49;79.85
71109;BME280;59614;51.012;-1.648;2024-03-22T11:08:38;100995.53;;;12.66;77.53
71109;BME280;59614;51.012;-1.648;2024-03-22T11:11:10;100994.63;;;12.07;76.50
71109;BME280;59614;51.012;-1.648;2024-03-22T11:13:36;100988.41;;;12.09;76.52
71109;BME280;59614;51.012;-1.648;2024-03-22T11:16:02;100991.22;;;11.95;76.43
71109;BME280;59614;51.012;-1.648;2024-03-22T11:18:27;100996.06;;;12.31;77.78
71109;BME280;59614;51.012;-1.648;2024-03-22T11:20:53;101001.31;;;12.34;79.08
71109;BME280;59614;51.012;-1.648;2024-03-22T11:23:19;101004.75;;;12.39;81.45
71109;BME280;59614;51.012;-1.648;2024-03-22T11:25:45;101013.28;;;11.94;81.11
71109;BME280;59614;51.012;-1.648;2024-03-22T11:28:11;101011.31;;;12.13;86.20
71109;BME280;59614;51.012;-1.648;2024-03-22T11:30:37;101015.41;;;12.34;89.61
71109;BME280;59614;51.012;-1.648;2024-03-22T11:33:03;101019.44;;;11.96;88.56
71109;BME280;59614;51.012;-1.648;2024-03-22T11:35:31;101021.47;;;11.72;91.17
71109;BME280;59614;51.012;-1.648;2024-03-22T11:37:57;101033.16;;;11.51;92.64
71109;BME280;59614;51.012;-1.648;2024-03-22T11:40:25;101037.06;;;11.11;96.01
71109;BME280;59614;51.012;-1.648;2024-03-22T11:42:52;101023.31;;;10.71;92.60
71109;BME280;59614;51.012;-1.648;2024-03-22T11:45:19;101021.72;;;10.49;92.23
71109;BME280;59614;51.012;-1.648;2024-03-22T11:47:46;101012.81;;;10.61;91.18
71109;BME280;59614;51.012;-1.648;2024-03-22T11:50:12;101009.97;;;10.89;93.97
71109;BME280;59614;51.012;-1.648;2024-03-22T11:52:40;100999.44;;;10.85;90.68
71109;BME280;59614;51.012;-1.648;2024-03-22T11:55:06;101010.69;;;11.07;95.35
71109;BME280;59614;51.012;-1.648;2024-03-22T11:57:32;101008.81;;;11.21;91.66
71109;BME280;59614;51.012;-1.648;2024-03-22T12:00:01;101013.75;;;11.55;91.41
71109;BME280;59614;51.012;-1.648;2024-03-22T12:02:27;101013.66;;;11.62;94.99
71109;BME280;59614;51.012;-1.648;2024-03-22T12:04:53;100980.66;;;11.94;95.45
71109;BME280;59614;51.012;-1.648;2024-03-22T12:07:18;100967.25;;;12.09;90.62
71109;BME280;59614;51.012;-1.648;2024-03-22T12:09:44;100974.53;;;11.92;91.12
71109;BME280;59614;51.012;-1.648;2024-03-22T12:12:11;100977.78;;;12.15;93.73
71109;BME280;59614;51.012;-1.648;2024-03-22T12:14:37;100968.50;;;11.80;88.68
71109;BME280;59614;51.012;-1.648;2024-03-22T12:17:03;100971.03;;;11.89;90.57
71109;BME280;59614;51.012;-1.648;2024-03-22T12:19:29;100971.81;;;11.98;92.66
71109;BME280;59614;51.012;-1.648;2024-03-22T12:21:54;100964.38;;;11.57;88.47
71109;BME280;59614;51.012;-1.648;2024-03-22T12:24:21;100971.22;;;11.74;90.98
71109;BME280;59614;51.012;-1.648;2024-03-22T12:26:46;100974.44;;;12.01;95.41
71109;BME280;59614;51.012;-1.648;2024-03-22T12:29:12;100970.91;;;12.00;94.98